Thursday, July 24, 2014
02:25 UTC
  |  Log In   |  Register Free
Airport Search:

Foothills Regional Airport
(KMRN)

Foothills Regional Airport Diagram
No Airport Diagram Available

FAA data valid effective May 29, 2014 until July 24, 2014 (unless otherwise noted).

 
 
 
 
 
 
 
 
 
 
 
 
 
 

Current Aviation Weather for Foothills Regional Airport (KMRN)

The most recent METAR observation for KMRN was updated at: 0135 UTC
METAR Summary (Translated METAR)
KMRN
240135Z AUTO 00000KT 10SM CLR 23/21 A3003 RMK AO2 T02270213
KHKY
(11.8 nm SE from KMRN)
240053Z AUTO 23005KT 10SM FEW120 24/22 A2999 RMK AO2 SLP135 T02390217
TAF Summary (Translated TAF)
KHKY
(11.8 nm SE from KMRN)
232200Z 2322/2418 26007KT P6SM VCSH SCT040 BKN080 FM232300 24004KT P6SM BKN045 FM240300 00000KT P6SM BKN080 FM241400 00000KT P6SM BKN070 PROB30 2415/2418 4SM TSRA BKN040CB
  Airport Weather Conditions for KMRN

 Current Weather at MRN
73° F
Fair
North winds at 0.0 mph
MRN NOAA Radar

Pressure: 30.03 in
Humidity: 92%
Wind: Calm
Dew Point: 70.3°F
Visibility: 10.00 mi


Airport Weather Forecast for KMRN

Translated METAR and TAF for KMRN
Translated METAR for KMRN (0219 UTC 24 July 2014)
found at http://aviationweather.gov/adds/metars/
 
METAR text: KMRN 240155Z AUTO 00000KT 7SM CLR 22/21 A3003 RMK AO2 T02210214
Conditions at: KMRN (MORGANTON/LENOIR, NC, US) observed 0155 UTC 24 July 2014
Temperature: 22.1°C (72°F)
Dewpoint: 21.4°C (71°F) [RH = 96%]
Pressure (altimeter): 30.03 inches Hg (1017.0 mb)
Winds: calm
Visibility: 7 miles (11 km)
Ceiling: at least 12,000 feet AGL
Clouds: sky clear below 12,000 feet AGL
Weather: automated observation with no human augmentation;
there may or may not be significant weather present at this time
Translated TAF for KMRN

There is no translated TAF available for this airport

Find All Airport Services Find A Hotel Find A Rental Car Find A Golf Course Find A Restaurant $100 Hamburger



FBO's on the Field
FBO Company Facility Photos Services Transportation Aviation Fuel Prices: Prices include tax
Catering Weather Repair Courtesy Rental Type 100LL JetA JetA+ MOGAS 8087
 
Foothills Aviation

This FBO has not yet been rated
FS:Shell
Last Updated: Jul-17
Login to update fuel prices
SS:
Contact Foothills AviationMore FBO Information
 
Add another FBO Facility Photos Catering Weather Repair Courtesy Rental Type 100LL JetA JetA+ MOGAS 8087
Services Transportation Aviation Fuel Prices: Prices include tax


GlobalAir.com Airport Resource Center model-print
model-print
model-print
model-print